sensor_id;sensor_type;location;lat;lon;timestamp;pressure;altitude;pressure_sealevel;temperature;humidity
12203;BME280;6164;42.178;24.622;2023-03-26T00:02:17;98957.66;;;10.82;100.00
12203;BME280;6164;42.178;24.622;2023-03-26T00:04:43;98962.03;;;10.75;100.00
12203;BME280;6164;42.178;24.622;2023-03-26T00:07:10;98959.78;;;10.72;100.00
12203;BME280;6164;42.178;24.622;2023-03-26T00:09:38;98953.84;;;10.70;100.00
12203;BME280;6164;42.178;24.622;2023-03-26T00:12:05;98954.94;;;10.75;100.00
12203;BME280;6164;42.178;24.622;2023-03-26T00:14:31;98950.31;;;10.77;100.00
12203;BME280;6164;42.178;24.622;2023-03-26T00:16:59;98948.19;;;10.73;100.00
12203;BME280;6164;42.178;24.622;2023-03-26T00:19:26;98957.41;;;10.77;100.00
12203;BME280;6164;42.178;24.622;2023-03-26T00:21:54;98951.75;;;10.80;100.00
12203;BME280;6164;42.178;24.622;2023-03-26T00:24:21;98951.84;;;10.72;100.00
12203;BME280;6164;42.178;24.622;2023-03-26T00:26:55;98956.19;;;10.79;100.00
12203;BME280;6164;42.178;24.622;2023-03-26T00:29:21;98946.72;;;10.85;100.00
12203;BME280;6164;42.178;24.622;2023-03-26T00:31:48;98952.09;;;10.91;100.00
12203;BME280;6164;42.178;24.622;2023-03-26T00:34:15;98940.63;;;10.99;100.00
12203;BME280;6164;42.178;24.622;2023-03-26T00:36:42;98941.94;;;11.09;100.00
12203;BME280;6164;42.178;24.622;2023-03-26T00:39:10;98942.81;;;11.16;100.00
12203;BME280;6164;42.178;24.622;2023-03-26T00:41:38;98953.00;;;11.19;100.00
12203;BME280;6164;42.178;24.622;2023-03-26T00:44:08;98961.44;;;11.29;100.00
12203;BME280;6164;42.178;24.622;2023-03-26T00:46:35;98959.81;;;11.28;100.00
12203;BME280;6164;42.178;24.622;2023-03-26T00:49:01;98955.41;;;11.35;100.00
12203;BME280;6164;42.178;24.622;2023-03-26T00:51:28;98959.75;;;11.43;100.00
12203;BME280;6164;42.178;24.622;2023-03-26T00:53:55;98957.38;;;11.48;100.00
12203;BME280;6164;42.178;24.622;2023-03-26T00:56:22;98960.28;;;11.53;100.00
12203;BME280;6164;42.178;24.622;2023-03-26T00:58:48;98962.47;;;11.49;100.00
12203;BME280;6164;42.178;24.622;2023-03-26T01:01:17;98971.44;;;11.55;100.00
12203;BME280;6164;42.178;24.622;2023-03-26T01:03:44;98990.97;;;11.33;100.00
12203;BME280;6164;42.178;24.622;2023-03-26T01:06:11;99008.75;;;11.24;100.00
12203;BME280;6164;42.178;24.622;2023-03-26T01:08:40;99008.97;;;11.08;100.00
12203;BME280;6164;42.178;24.622;2023-03-26T01:11:12;98999.44;;;10.93;100.00
12203;BME280;6164;42.178;24.622;2023-03-26T01:13:40;98990.72;;;10.92;100.00
12203;BME280;6164;42.178;24.622;2023-03-26T01:16:09;98981.41;;;10.96;100.00
12203;BME280;6164;42.178;24.622;2023-03-26T01:18:46;98989.66;;;11.08;100.00
12203;BME280;6164;42.178;24.622;2023-03-26T01:21:13;99001.25;;;11.07;100.00
12203;BME280;6164;42.178;24.622;2023-03-26T01:23:47;99000.88;;;11.10;100.00
12203;BME280;6164;42.178;24.622;2023-03-26T01:26:18;98994.75;;;11.09;100.00
12203;BME280;6164;42.178;24.622;2023-03-26T01:28:47;98994.94;;;11.08;100.00
12203;BME280;6164;42.178;24.622;2023-03-26T01:31:16;99001.59;;;11.04;100.00
12203;BME280;6164;42.178;24.622;2023-03-26T01:33:51;98988.56;;;11.02;100.00
12203;BME280;6164;42.178;24.622;2023-03-26T01:36:23;98984.56;;;11.06;100.00
12203;BME280;6164;42.178;24.622;2023-03-26T01:38:52;98988.66;;;11.09;100.00
12203;BME280;6164;42.178;24.622;2023-03-26T01:41:25;98990.50;;;11.08;100.00
12203;BME280;6164;42.178;24.622;2023-03-26T01:43:56;98994.72;;;11.24;100.00
12203;BME280;6164;42.178;24.622;2023-03-26T01:46:25;98991.16;;;11.31;100.00
12203;BME280;6164;42.178;24.622;2023-03-26T01:48:52;98991.09;;;11.46;100.00
12203;BME280;6164;42.178;24.622;2023-03-26T01:51:26;98997.34;;;11.59;100.00
12203;BME280;6164;42.178;24.622;2023-03-26T01:53:53;98994.59;;;11.67;100.00
12203;BME280;6164;42.178;24.622;2023-03-26T01:56:21;98994.72;;;11.80;100.00
12203;BME280;6164;42.178;24.622;2023-03-26T01:59:02;98988.25;;;11.89;100.00
12203;BME280;6164;42.178;24.622;2023-03-26T02:01:34;98981.88;;;12.05;100.00
12203;BME280;6164;42.178;24.622;2023-03-26T02:04:10;98968.78;;;12.25;100.00
12203;BME280;6164;42.178;24.622;2023-03-26T02:06:40;98965.00;;;12.34;100.00
12203;BME280;6164;42.178;24.622;2023-03-26T02:09:09;98964.00;;;12.41;100.00
12203;BME280;6164;42.178;24.622;2023-03-26T02:11:38;98961.00;;;12.51;100.00
12203;BME280;6164;42.178;24.622;2023-03-26T02:14:07;98969.41;;;12.61;100.00
12203;BME280;6164;42.178;24.622;2023-03-26T02:16:35;98970.44;;;12.60;100.00
12203;BME280;6164;42.178;24.622;2023-03-26T02:19:02;98961.28;;;12.69;100.00
12203;BME280;6164;42.178;24.622;2023-03-26T02:21:29;98962.75;;;12.71;100.00
12203;BME280;6164;42.178;24.622;2023-03-26T02:23:58;98961.72;;;12.72;100.00
12203;BME280;6164;42.178;24.622;2023-03-26T02:26:27;98965.19;;;12.73;100.00
12203;BME280;6164;42.178;24.622;2023-03-26T02:28:54;98967.03;;;12.72;100.00
12203;BME280;6164;42.178;24.622;2023-03-26T02:31:22;98965.22;;;12.79;100.00
12203;BME280;6164;42.178;24.622;2023-03-26T02:33:50;98971.72;;;12.77;100.00
12203;BME280;6164;42.178;24.622;2023-03-26T02:36:17;98969.91;;;12.77;100.00
12203;BME280;6164;42.178;24.622;2023-03-26T02:38:48;98972.75;;;12.76;100.00
12203;BME280;6164;42.178;24.622;2023-03-26T02:41:15;98980.03;;;12.67;100.00
12203;BME280;6164;42.178;24.622;2023-03-26T02:43:42;98979.81;;;12.62;100.00
12203;BME280;6164;42.178;24.622;2023-03-26T02:46:09;98976.91;;;12.57;100.00
12203;BME280;6164;42.178;24.622;2023-03-26T02:48:36;98983.19;;;12.50;100.00
12203;BME280;6164;42.178;24.622;2023-03-26T02:51:05;98985.63;;;12.45;100.00
12203;BME280;6164;42.178;24.622;2023-03-26T02:53:32;98992.09;;;12.42;100.00
12203;BME280;6164;42.178;24.622;2023-03-26T02:55:59;98996.63;;;12.48;100.00
12203;BME280;6164;42.178;24.622;2023-03-26T02:58:25;99006.44;;;12.54;100.00
12203;BME280;6164;42.178;24.622;2023-03-26T03:00:54;99014.19;;;12.56;100.00
12203;BME280;6164;42.178;24.622;2023-03-26T03:03:20;99014.22;;;12.62;100.00
12203;BME280;6164;42.178;24.622;2023-03-26T03:05:49;99010.38;;;12.65;100.00
12203;BME280;6164;42.178;24.622;2023-03-26T03:08:16;99016.28;;;12.67;100.00
12203;BME280;6164;42.178;24.622;2023-03-26T03:10:43;99013.81;;;12.65;100.00
12203;BME280;6164;42.178;24.622;2023-03-26T03:13:09;99020.78;;;12.66;100.00
12203;BME280;6164;42.178;24.622;2023-03-26T03:15:36;99023.81;;;12.63;100.00
12203;BME280;6164;42.178;24.622;2023-03-26T03:18:03;99018.53;;;12.63;100.00
12203;BME280;6164;42.178;24.622;2023-03-26T03:20:29;99018.66;;;12.55;100.00
12203;BME280;6164;42.178;24.622;2023-03-26T03:23:00;99028.25;;;12.56;100.00
12203;BME280;6164;42.178;24.622;2023-03-26T03:25:27;99036.16;;;12.50;100.00
12203;BME280;6164;42.178;24.622;2023-03-26T03:27:53;99038.13;;;12.41;100.00
12203;BME280;6164;42.178;24.622;2023-03-26T03:30:19;99038.31;;;12.40;100.00
12203;BME280;6164;42.178;24.622;2023-03-26T03:32:46;99042.41;;;12.42;100.00
12203;BME280;6164;42.178;24.622;2023-03-26T03:35:12;99037.59;;;12.52;99.37
12203;BME280;6164;42.178;24.622;2023-03-26T03:37:39;99044.91;;;12.50;98.23
12203;BME280;6164;42.178;24.622;2023-03-26T03:40:08;99049.16;;;12.45;98.14
12203;BME280;6164;42.178;24.622;2023-03-26T03:42:35;99048.09;;;12.39;98.49
12203;BME280;6164;42.178;24.622;2023-03-26T03:45:01;99057.03;;;12.38;98.06
12203;BME280;6164;42.178;24.622;2023-03-26T03:47:28;99055.38;;;12.37;97.87
12203;BME280;6164;42.178;24.622;2023-03-26T03:49:54;99053.91;;;12.28;98.42
12203;BME280;6164;42.178;24.622;2023-03-26T03:52:24;99064.84;;;12.19;99.74
12203;BME280;6164;42.178;24.622;2023-03-26T03:54:51;99072.47;;;12.07;99.83
12203;BME280;6164;42.178;24.622;2023-03-26T03:57:19;99064.47;;;12.01;99.69
12203;BME280;6164;42.178;24.622;2023-03-26T03:59:46;99065.41;;;11.93;100.00
12203;BME280;6164;42.178;24.622;2023-03-26T04:02:13;99069.72;;;11.94;100.00
12203;BME280;6164;42.178;24.622;2023-03-26T04:04:45;99065.84;;;11.97;99.54
12203;BME280;6164;42.178;24.622;2023-03-26T04:07:14;99069.91;;;11.93;99.66
12203;BME280;6164;42.178;24.622;2023-03-26T04:09:40;99068.19;;;11.85;99.83
12203;BME280;6164;42.178;24.622;2023-03-26T04:12:07;99062.84;;;11.78;100.00
12203;BME280;6164;42.178;24.622;2023-03-26T04:14:35;99065.84;;;11.75;100.00
12203;BME280;6164;42.178;24.622;2023-03-26T04:17:01;99077.53;;;11.66;100.00
12203;BME280;6164;42.178;24.622;2023-03-26T04:19:29;99078.25;;;11.75;100.00
12203;BME280;6164;42.178;24.622;2023-03-26T04:21:56;99088.88;;;11.81;99.97
12203;BME280;6164;42.178;24.622;2023-03-26T04:24:26;99082.41;;;11.84;99.23
12203;BME280;6164;42.178;24.622;2023-03-26T04:26:52;99086.06;;;11.83;99.29
12203;BME280;6164;42.178;24.622;2023-03-26T04:29:20;99090.34;;;11.84;99.30
12203;BME280;6164;42.178;24.622;2023-03-26T04:31:51;99101.66;;;11.78;100.00
12203;BME280;6164;42.178;24.622;2023-03-26T04:34:22;99104.44;;;11.70;100.00
12203;BME280;6164;42.178;24.622;2023-03-26T04:36:49;99105.00;;;11.65;100.00
12203;BME280;6164;42.178;24.622;2023-03-26T04:39:18;99107.00;;;11.63;100.00
12203;BME280;6164;42.178;24.622;2023-03-26T04:41:46;99109.91;;;11.68;100.00
12203;BME280;6164;42.178;24.622;2023-03-26T04:44:12;99122.94;;;11.70;100.00
12203;BME280;6164;42.178;24.622;2023-03-26T04:46:41;99121.75;;;11.72;100.00
12203;BME280;6164;42.178;24.622;2023-03-26T04:49:10;99121.13;;;11.70;100.00
12203;BME280;6164;42.178;24.622;2023-03-26T04:51:37;99115.84;;;11.70;100.00
12203;BME280;6164;42.178;24.622;2023-03-26T04:54:06;99105.63;;;11.67;100.00
12203;BME280;6164;42.178;24.622;2023-03-26T04:56:35;99122.38;;;11.60;100.00
12203;BME280;6164;42.178;24.622;2023-03-26T04:59:04;99133.53;;;11.70;100.00
12203;BME280;6164;42.178;24.622;2023-03-26T05:01:32;99123.00;;;11.76;100.00
12203;BME280;6164;42.178;24.622;2023-03-26T05:04:01;99128.69;;;11.94;100.00
12203;BME280;6164;42.178;24.622;2023-03-26T05:06:29;99149.13;;;12.01;100.00
12203;BME280;6164;42.178;24.622;2023-03-26T05:08:58;99138.09;;;11.97;100.00
12203;BME280;6164;42.178;24.622;2023-03-26T05:11:25;99149.06;;;11.94;100.00
12203;BME280;6164;42.178;24.622;2023-03-26T05:13:52;99167.50;;;11.87;100.00
12203;BME280;6164;42.178;24.622;2023-03-26T05:16:18;99156.72;;;11.89;100.00
12203;BME280;6164;42.178;24.622;2023-03-26T05:18:45;99162.47;;;11.93;100.00
12203;BME280;6164;42.178;24.622;2023-03-26T05:21:12;99157.06;;;12.01;100.00
12203;BME280;6164;42.178;24.622;2023-03-26T05:23:42;99163.41;;;12.06;100.00
12203;BME280;6164;42.178;24.622;2023-03-26T05:26:08;99176.72;;;12.13;100.00
12203;BME280;6164;42.178;24.622;2023-03-26T05:28:35;99170.50;;;12.20;100.00
12203;BME280;6164;42.178;24.622;2023-03-26T05:31:02;99175.41;;;12.23;100.00
12203;BME280;6164;42.178;24.622;2023-03-26T05:33:29;99184.97;;;12.24;100.00
12203;BME280;6164;42.178;24.622;2023-03-26T05:35:59;99186.25;;;12.28;100.00
12203;BME280;6164;42.178;24.622;2023-03-26T05:38:26;99193.03;;;12.37;100.00
12203;BME280;6164;42.178;24.622;2023-03-26T05:40:57;99198.56;;;12.42;100.00
12203;BME280;6164;42.178;24.622;2023-03-26T05:43:24;99190.34;;;12.52;100.00
12203;BME280;6164;42.178;24.622;2023-03-26T05:45:51;99194.47;;;12.61;100.00
12203;BME280;6164;42.178;24.622;2023-03-26T05:48:18;99202.47;;;12.67;100.00
12203;BME280;6164;42.178;24.622;2023-03-26T05:50:46;99208.66;;;12.74;99.97
12203;BME280;6164;42.178;24.622;2023-03-26T05:53:13;99219.31;;;12.81;99.59
12203;BME280;6164;42.178;24.622;2023-03-26T05:55:39;99210.78;;;12.85;99.91
12203;BME280;6164;42.178;24.622;2023-03-26T05:58:07;99252.22;;;12.93;97.33
12203;BME280;6164;42.178;24.622;2023-03-26T06:00:34;99228.44;;;12.99;96.29
12203;BME280;6164;42.178;24.622;2023-03-26T06:03:02;99242.38;;;13.08;96.48
12203;BME280;6164;42.178;24.622;2023-03-26T06:05:30;99227.78;;;13.18;96.11
12203;BME280;6164;42.178;24.622;2023-03-26T06:07:57;99234.16;;;13.24;94.89
12203;BME280;6164;42.178;24.622;2023-03-26T06:10:24;99225.41;;;13.30;94.15
12203;BME280;6164;42.178;24.622;2023-03-26T06:12:50;99246.25;;;13.40;93.16
12203;BME280;6164;42.178;24.622;2023-03-26T06:15:18;99260.81;;;13.50;90.93
12203;BME280;6164;42.178;24.622;2023-03-26T06:17:44;99253.69;;;13.51;91.07
12203;BME280;6164;42.178;24.622;2023-03-26T06:20:11;99244.31;;;13.55;92.51
12203;BME280;6164;42.178;24.622;2023-03-26T06:22:38;99245.78;;;13.57;90.16
12203;BME280;6164;42.178;24.622;2023-03-26T06:25:04;99237.03;;;13.63;90.77
12203;BME280;6164;42.178;24.622;2023-03-26T06:27:31;99235.00;;;13.65;90.70
12203;BME280;6164;42.178;24.622;2023-03-26T06:29:57;99236.47;;;13.74;89.93
12203;BME280;6164;42.178;24.622;2023-03-26T06:32:25;99223.47;;;13.92;89.46
12203;BME280;6164;42.178;24.622;2023-03-26T06:34:52;99224.31;;;13.99;86.99
12203;BME280;6164;42.178;24.622;2023-03-26T06:37:18;99248.25;;;14.06;84.82
12203;BME280;6164;42.178;24.622;2023-03-26T06:39:45;99236.41;;;14.02;82.94
12203;BME280;6164;42.178;24.622;2023-03-26T06:42:11;99235.59;;;14.08;83.92
12203;BME280;6164;42.178;24.622;2023-03-26T06:44:38;99236.78;;;14.05;84.49
12203;BME280;6164;42.178;24.622;2023-03-26T06:47:04;99278.97;;;13.87;82.20
12203;BME280;6164;42.178;24.622;2023-03-26T06:49:32;99264.31;;;13.91;83.30
12203;BME280;6164;42.178;24.622;2023-03-26T06:51:59;99263.44;;;13.84;84.12
12203;BME280;6164;42.178;24.622;2023-03-26T06:54:27;99255.34;;;13.99;82.79
12203;BME280;6164;42.178;24.622;2023-03-26T06:56:53;99258.94;;;14.25;80.88
12203;BME280;6164;42.178;24.622;2023-03-26T06:59:20;99262.28;;;14.40;77.89
12203;BME280;6164;42.178;24.622;2023-03-26T07:01:46;99258.22;;;14.58;77.70
12203;BME280;6164;42.178;24.622;2023-03-26T07:04:12;99268.25;;;14.69;75.08
12203;BME280;6164;42.178;24.622;2023-03-26T07:06:40;99296.00;;;14.60;72.75
12203;BME280;6164;42.178;24.622;2023-03-26T07:09:07;99271.75;;;14.76;73.74
12203;BME280;6164;42.178;24.622;2023-03-26T07:11:33;99269.88;;;14.83;72.21
12203;BME280;6164;42.178;24.622;2023-03-26T07:14:00;99284.84;;;14.90;70.77
12203;BME280;6164;42.178;24.622;2023-03-26T07:16:26;99276.47;;;15.00;70.12
12203;BME280;6164;42.178;24.622;2023-03-26T07:18:53;99268.06;;;15.03;69.83
12203;BME280;6164;42.178;24.622;2023-03-26T07:21:20;99277.50;;;15.12;67.78
12203;BME280;6164;42.178;24.622;2023-03-26T07:23:49;99266.03;;;15.18;67.64
12203;BME280;6164;42.178;24.622;2023-03-26T07:26:22;99272.38;;;15.17;66.13
12203;BME280;6164;42.178;24.622;2023-03-26T07:28:51;99269.09;;;15.21;65.12
12203;BME280;6164;42.178;24.622;2023-03-26T07:31:23;99265.81;;;15.32;65.66
12203;BME280;6164;42.178;24.622;2023-03-26T07:33:54;99278.91;;;15.27;65.29
12203;BME280;6164;42.178;24.622;2023-03-26T07:36:27;99248.03;;;15.39;65.07
12203;BME280;6164;42.178;24.622;2023-03-26T07:39:05;99274.63;;;15.46;63.19
12203;BME280;6164;42.178;24.622;2023-03-26T07:41:36;99266.44;;;15.47;63.93
12203;BME280;6164;42.178;24.622;2023-03-26T07:44:09;99278.28;;;15.58;61.99
12203;BME280;6164;42.178;24.622;2023-03-26T07:46:38;99284.41;;;15.58;60.33
12203;BME280;6164;42.178;24.622;2023-03-26T07:49:07;99278.66;;;15.81;61.11
12203;BME280;6164;42.178;24.622;2023-03-26T07:51:35;99281.91;;;15.76;59.71
12203;BME280;6164;42.178;24.622;2023-03-26T07:54:01;99306.50;;;15.65;59.06
12203;BME280;6164;42.178;24.622;2023-03-26T07:56:31;99283.78;;;15.76;60.32
12203;BME280;6164;42.178;24.622;2023-03-26T07:59:02;99283.38;;;15.72;59.62
12203;BME280;6164;42.178;24.622;2023-03-26T08:01:34;99272.16;;;15.57;59.69
12203;BME280;6164;42.178;24.622;2023-03-26T08:04:06;99272.31;;;15.69;59.59
12203;BME280;6164;42.178;24.622;2023-03-26T08:06:37;99272.72;;;15.72;59.73
12203;BME280;6164;42.178;24.622;2023-03-26T08:09:10;99263.72;;;15.67;60.20
12203;BME280;6164;42.178;24.622;2023-03-26T08:11:42;99259.66;;;15.58;59.80
12203;BME280;6164;42.178;24.622;2023-03-26T08:14:15;99247.13;;;15.78;60.21
12203;BME280;6164;42.178;24.622;2023-03-26T08:16:46;99249.31;;;15.94;60.86
12203;BME280;6164;42.178;24.622;2023-03-26T08:19:27;99269.59;;;15.95;59.23
12203;BME280;6164;42.178;24.622;2023-03-26T08:21:56;99268.38;;;15.98;58.89
12203;BME280;6164;42.178;24.622;2023-03-26T08:24:25;99266.41;;;16.18;59.27
12203;BME280;6164;42.178;24.622;2023-03-26T08:26:57;99275.00;;;16.20;58.13
12203;BME280;6164;42.178;24.622;2023-03-26T08:29:31;99264.34;;;16.20;58.70
12203;BME280;6164;42.178;24.622;2023-03-26T08:31:59;99284.63;;;16.27;57.84
12203;BME280;6164;42.178;24.622;2023-03-26T08:34:27;99287.69;;;16.31;56.39
12203;BME280;6164;42.178;24.622;2023-03-26T08:36:53;99296.00;;;16.54;55.27
12203;BME280;6164;42.178;24.622;2023-03-26T08:39:19;99311.81;;;16.49;54.03
12203;BME280;6164;42.178;24.622;2023-03-26T08:42:06;99350.13;;;16.48;52.81
12203;BME280;6164;42.178;24.622;2023-03-26T08:47:32;99316.66;;;16.96;53.81
12203;BME280;6164;42.178;24.622;2023-03-26T08:50:19;99333.13;;;16.86;52.83
12203;BME280;6164;42.178;24.622;2023-03-26T08:55:42;99364.47;;;16.91;50.24
12203;BME280;6164;42.178;24.622;2023-03-26T09:01:09;99372.00;;;17.00;50.05
12203;BME280;6164;42.178;24.622;2023-03-26T09:06:42;99414.00;;;17.05;47.86
12203;BME280;6164;42.178;24.622;2023-03-26T09:09:30;99417.50;;;17.05;47.78
12203;BME280;6164;42.178;24.622;2023-03-26T09:20:40;99437.78;;;17.51;46.08
12203;BME280;6164;42.178;24.622;2023-03-26T09:23:20;99430.19;;;17.79;46.42
12203;BME280;6164;42.178;24.622;2023-03-26T09:26:03;99441.59;;;17.86;45.72
12203;BME280;6164;42.178;24.622;2023-03-26T09:31:30;99485.03;;;17.99;44.27
12203;BME280;6164;42.178;24.622;2023-03-26T09:34:08;99504.41;;;17.95;43.85
12203;BME280;6164;42.178;24.622;2023-03-26T09:36:54;99491.38;;;17.80;44.37
12203;BME280;6164;42.178;24.622;2023-03-26T09:39:26;99480.59;;;17.93;44.22
12203;BME280;6164;42.178;24.622;2023-03-26T09:42:01;99468.94;;;18.06;44.77
12203;BME280;6164;42.178;24.622;2023-03-26T09:44:57;99485.91;;;17.93;43.47
12203;BME280;6164;42.178;24.622;2023-03-26T09:47:40;99469.66;;;18.19;44.40
12203;BME280;6164;42.178;24.622;2023-03-26T09:50:13;99493.75;;;18.37;44.28
12203;BME280;6164;42.178;24.622;2023-03-26T09:52:47;99508.56;;;18.33;43.58
12203;BME280;6164;42.178;24.622;2023-03-26T09:55:19;99530.44;;;18.24;42.30
12203;BME280;6164;42.178;24.622;2023-03-26T09:57:55;99515.69;;;18.21;43.21
12203;BME280;6164;42.178;24.622;2023-03-26T10:00:26;99541.03;;;18.37;41.79
12203;BME280;6164;42.178;24.622;2023-03-26T10:02:58;99551.06;;;18.48;41.86
12203;BME280;6164;42.178;24.622;2023-03-26T10:08:18;99549.50;;;18.59;41.29
12203;BME280;6164;42.178;24.622;2023-03-26T10:10:53;99573.56;;;18.77;40.89
12203;BME280;6164;42.178;24.622;2023-03-26T10:13:23;99585.94;;;18.78;39.99
12203;BME280;6164;42.178;24.622;2023-03-26T10:15:54;99629.06;;;18.63;38.98
12203;BME280;6164;42.178;24.622;2023-03-26T10:18:25;99600.88;;;18.85;39.78
12203;BME280;6164;42.178;24.622;2023-03-26T10:20:58;99626.72;;;18.91;38.74
12203;BME280;6164;42.178;24.622;2023-03-26T10:23:35;99641.75;;;18.92;39.28
12203;BME280;6164;42.178;24.622;2023-03-26T10:28:57;99641.31;;;18.95;38.84
12203;BME280;6164;42.178;24.622;2023-03-26T10:31:34;99657.66;;;19.05;37.96
12203;BME280;6164;42.178;24.622;2023-03-26T10:34:03;99662.78;;;19.07;38.00
12203;BME280;6164;42.178;24.622;2023-03-26T10:36:35;99674.03;;;19.15;37.01
12203;BME280;6164;42.178;24.622;2023-03-26T10:41:57;99699.53;;;19.18;36.87
12203;BME280;6164;42.178;24.622;2023-03-26T10:44:31;99694.22;;;19.36;37.55
12203;BME280;6164;42.178;24.622;2023-03-26T10:47:13;99708.50;;;19.30;37.16
12203;BME280;6164;42.178;24.622;2023-03-26T10:52:29;99706.13;;;19.40;37.27
12203;BME280;6164;42.178;24.622;2023-03-26T10:55:01;99733.81;;;19.34;36.22
12203;BME280;6164;42.178;24.622;2023-03-26T10:57:34;99748.97;;;19.40;36.54
12203;BME280;6164;42.178;24.622;2023-03-26T11:00:11;99752.75;;;19.50;35.94
12203;BME280;6164;42.178;24.622;2023-03-26T11:02:40;99760.31;;;19.60;35.56
12203;BME280;6164;42.178;24.622;2023-03-26T11:05:18;99739.81;;;19.84;36.19
12203;BME280;6164;42.178;24.622;2023-03-26T11:07:51;99718.31;;;19.90;37.20
12203;BME280;6164;42.178;24.622;2023-03-26T11:10:24;99714.53;;;19.98;37.05
12203;BME280;6164;42.178;24.622;2023-03-26T11:12:58;99734.91;;;20.17;35.57
12203;BME280;6164;42.178;24.622;2023-03-26T11:15:29;99721.22;;;20.36;36.52
12203;BME280;6164;42.178;24.622;2023-03-26T11:18:02;99754.47;;;20.35;35.14
12203;BME280;6164;42.178;24.622;2023-03-26T11:20:31;99779.47;;;20.18;35.13
12203;BME280;6164;42.178;24.622;2023-03-26T11:25:55;99776.81;;;20.11;34.91
12203;BME280;6164;42.178;24.622;2023-03-26T11:28:31;99810.41;;;19.96;33.37
12203;BME280;6164;42.178;24.622;2023-03-26T11:31:01;99805.66;;;20.16;33.39
12203;BME280;6164;42.178;24.622;2023-03-26T11:33:30;99793.69;;;20.48;35.08
12203;BME280;6164;42.178;24.622;2023-03-26T11:35:59;99813.78;;;20.57;34.46
12203;BME280;6164;42.178;24.622;2023-03-26T11:38:28;99812.03;;;20.51;34.08
12203;BME280;6164;42.178;24.622;2023-03-26T11:40:56;99838.28;;;20.31;32.58
12203;BME280;6164;42.178;24.622;2023-03-26T11:43:26;99827.00;;;20.40;33.90
12203;BME280;6164;42.178;24.622;2023-03-26T11:45:56;99850.78;;;20.19;33.59
12203;BME280;6164;42.178;24.622;2023-03-26T11:48:24;99881.47;;;20.23;31.44
12203;BME280;6164;42.178;24.622;2023-03-26T11:50:52;99880.88;;;20.21;32.27
12203;BME280;6164;42.178;24.622;2023-03-26T11:53:21;99888.31;;;20.37;31.39
12203;BME280;6164;42.178;24.622;2023-03-26T11:55:50;99865.91;;;20.61;32.58
12203;BME280;6164;42.178;24.622;2023-03-26T11:58:25;99873.81;;;20.74;31.99
12203;BME280;6164;42.178;24.622;2023-03-26T12:00:56;99872.22;;;21.14;32.44
12203;BME280;6164;42.178;24.622;2023-03-26T12:03:23;99900.13;;;21.13;31.61
12203;BME280;6164;42.178;24.622;2023-03-26T12:05:50;99915.97;;;21.03;31.31
12203;BME280;6164;42.178;24.622;2023-03-26T12:08:18;99933.00;;;20.97;30.73
12203;BME280;6164;42.178;24.622;2023-03-26T12:10:46;99943.41;;;21.05;31.31
12203;BME280;6164;42.178;24.622;2023-03-26T12:13:27;99962.47;;;21.15;30.22
12203;BME280;6164;42.178;24.622;2023-03-26T12:15:57;99999.03;;;20.98;29.33
12203;BME280;6164;42.178;24.622;2023-03-26T12:18:26;100013.91;;;20.94;29.18
12203;BME280;6164;42.178;24.622;2023-03-26T12:21:00;100026.72;;;20.99;29.35
12203;BME280;6164;42.178;24.622;2023-03-26T12:23:41;100032.22;;;21.22;28.84
12203;BME280;6164;42.178;24.622;2023-03-26T12:26:15;100038.75;;;21.55;29.01
12203;BME280;6164;42.178;24.622;2023-03-26T12:28:43;100034.25;;;21.67;29.79
12203;BME280;6164;42.178;24.622;2023-03-26T12:31:11;100060.44;;;21.42;29.00
12203;BME280;6164;42.178;24.622;2023-03-26T12:33:42;100074.19;;;21.34;28.48
12203;BME280;6164;42.178;24.622;2023-03-26T12:36:16;100071.63;;;21.39;29.19
12203;BME280;6164;42.178;24.622;2023-03-26T12:38:44;100076.47;;;21.49;28.58
12203;BME280;6164;42.178;24.622;2023-03-26T12:41:11;100070.53;;;21.58;28.03
12203;BME280;6164;42.178;24.622;2023-03-26T12:43:39;100134.66;;;21.37;26.71
12203;BME280;6164;42.178;24.622;2023-03-26T12:46:19;100130.13;;;21.37;27.30
12203;BME280;6164;42.178;24.622;2023-03-26T12:48:48;100146.81;;;21.57;27.34
12203;BME280;6164;42.178;24.622;2023-03-26T12:51:16;100163.09;;;21.62;26.35
12203;BME280;6164;42.178;24.622;2023-03-26T12:53:47;100177.50;;;21.68;26.40
12203;BME280;6164;42.178;24.622;2023-03-26T12:56:19;100184.75;;;21.67;26.81
12203;BME280;6164;42.178;24.622;2023-03-26T13:01:47;100159.72;;;21.85;28.32
12203;BME280;6164;42.178;24.622;2023-03-26T13:04:21;100185.19;;;21.82;26.29
12203;BME280;6164;42.178;24.622;2023-03-26T13:06:51;100229.38;;;21.68;25.04
12203;BME280;6164;42.178;24.622;2023-03-26T13:09:29;100235.78;;;21.49;26.95
12203;BME280;6164;42.178;24.622;2023-03-26T13:12:01;100233.09;;;21.49;26.95
12203;BME280;6164;42.178;24.622;2023-03-26T13:14:33;100207.56;;;21.58;27.97
12203;BME280;6164;42.178;24.622;2023-03-26T13:17:09;100219.88;;;21.30;26.88
12203;BME280;6164;42.178;24.622;2023-03-26T13:19:44;100220.13;;;21.46;27.66
12203;BME280;6164;42.178;24.622;2023-03-26T13:22:16;100215.13;;;21.50;27.18
12203;BME280;6164;42.178;24.622;2023-03-26T13:24:50;100234.81;;;21.62;26.72
12203;BME280;6164;42.178;24.622;2023-03-26T13:27:23;100234.75;;;21.50;27.14
12203;BME280;6164;42.178;24.622;2023-03-26T13:29:53;100220.13;;;21.64;27.24
12203;BME280;6164;42.178;24.622;2023-03-26T13:32:26;100220.78;;;21.60;26.92
12203;BME280;6164;42.178;24.622;2023-03-26T13:35:03;100216.78;;;21.87;27.42
12203;BME280;6164;42.178;24.622;2023-03-26T13:37:35;100225.44;;;21.89;26.83
12203;BME280;6164;42.178;24.622;2023-03-26T13:40:10;100217.63;;;22.17;27.42
12203;BME280;6164;42.178;24.622;2023-03-26T13:42:43;100216.56;;;22.18;27.45
12203;BME280;6164;42.178;24.622;2023-03-26T13:45:13;100211.31;;;22.23;27.83
12203;BME280;6164;42.178;24.622;2023-03-26T13:47:50;100210.28;;;22.36;27.25
12203;BME280;6164;42.178;24.622;2023-03-26T13:50:18;100226.94;;;22.44;27.20